sensor_id;sensor_type;location;lat;lon;timestamp;temperature;humidity
27506;DHT22;14939;43.596;1.320;2022-12-07T00:01:16;8.00;99.90
27506;DHT22;14939;43.596;1.320;2022-12-07T00:03:44;8.10;99.90
27506;DHT22;14939;43.596;1.320;2022-12-07T00:06:11;8.10;99.90
27506;DHT22;14939;43.596;1.320;2022-12-07T00:08:39;8.10;99.90
27506;DHT22;14939;43.596;1.320;2022-12-07T00:11:11;8.10;99.90
27506;DHT22;14939;43.596;1.320;2022-12-07T00:13:37;8.10;99.90
27506;DHT22;14939;43.596;1.320;2022-12-07T00:16:07;8.00;99.90
27506;DHT22;14939;43.596;1.320;2022-12-07T00:18:33;8.00;99.90
27506;DHT22;14939;43.596;1.320;2022-12-07T00:23:32;8.00;99.90
27506;DHT22;14939;43.596;1.320;2022-12-07T00:26:34;8.00;99.90
27506;DHT22;14939;43.596;1.320;2022-12-07T00:29:03;8.00;99.90
27506;DHT22;14939;43.596;1.320;2022-12-07T00:31:32;7.90;99.90
27506;DHT22;14939;43.596;1.320;2022-12-07T00:33:59;7.90;99.90
27506;DHT22;14939;43.596;1.320;2022-12-07T00:36:25;7.90;99.90
27506;DHT22;14939;43.596;1.320;2022-12-07T00:38:51;7.90;99.90
27506;DHT22;14939;43.596;1.320;2022-12-07T00:41:20;7.90;99.90
27506;DHT22;14939;43.596;1.320;2022-12-07T00:43:46;8.00;99.90
27506;DHT22;14939;43.596;1.320;2022-12-07T00:46:14;7.90;99.90
27506;DHT22;14939;43.596;1.320;2022-12-07T00:48:40;7.90;99.90
27506;DHT22;14939;43.596;1.320;2022-12-07T00:51:07;7.90;99.90
27506;DHT22;14939;43.596;1.320;2022-12-07T00:53:36;7.80;99.90
27506;DHT22;14939;43.596;1.320;2022-12-07T00:56:26;7.80;99.90
27506;DHT22;14939;43.596;1.320;2022-12-07T00:58:54;7.80;99.90
27506;DHT22;14939;43.596;1.320;2022-12-07T01:01:21;7.90;99.90
27506;DHT22;14939;43.596;1.320;2022-12-07T01:03:47;7.80;99.90
27506;DHT22;14939;43.596;1.320;2022-12-07T01:06:18;7.80;99.90
27506;DHT22;14939;43.596;1.320;2022-12-07T01:08:44;7.80;99.90
27506;DHT22;14939;43.596;1.320;2022-12-07T01:11:14;7.80;99.90
27506;DHT22;14939;43.596;1.320;2022-12-07T01:13:40;7.80;99.90
27506;DHT22;14939;43.596;1.320;2022-12-07T01:16:07;7.80;99.90
27506;DHT22;14939;43.596;1.320;2022-12-07T01:18:35;7.80;99.90
27506;DHT22;14939;43.596;1.320;2022-12-07T01:21:16;7.70;99.90
27506;DHT22;14939;43.596;1.320;2022-12-07T01:23:42;7.70;99.90
27506;DHT22;14939;43.596;1.320;2022-12-07T01:26:12;7.70;99.90
27506;DHT22;14939;43.596;1.320;2022-12-07T01:28:38;7.70;99.90
27506;DHT22;14939;43.596;1.320;2022-12-07T01:31:10;7.70;99.90
27506;DHT22;14939;43.596;1.320;2022-12-07T01:33:37;7.70;99.90
27506;DHT22;14939;43.596;1.320;2022-12-07T01:36:12;7.60;99.90
27506;DHT22;14939;43.596;1.320;2022-12-07T01:38:38;7.60;99.90
27506;DHT22;14939;43.596;1.320;2022-12-07T01:41:04;7.60;99.90
27506;DHT22;14939;43.596;1.320;2022-12-07T01:43:32;7.50;99.90
27506;DHT22;14939;43.596;1.320;2022-12-07T01:45:58;7.60;99.90
27506;DHT22;14939;43.596;1.320;2022-12-07T01:48:36;7.50;99.90
27506;DHT22;14939;43.596;1.320;2022-12-07T01:51:09;7.60;99.90
27506;DHT22;14939;43.596;1.320;2022-12-07T01:53:40;7.60;99.90
27506;DHT22;14939;43.596;1.320;2022-12-07T01:56:08;7.60;99.90
27506;DHT22;14939;43.596;1.320;2022-12-07T01:58:36;7.60;99.90
27506;DHT22;14939;43.596;1.320;2022-12-07T02:01:02;7.60;99.90
27506;DHT22;14939;43.596;1.320;2022-12-07T02:03:46;7.60;99.90
27506;DHT22;14939;43.596;1.320;2022-12-07T02:06:16;7.60;99.90
27506;DHT22;14939;43.596;1.320;2022-12-07T02:08:43;7.60;99.90
27506;DHT22;14939;43.596;1.320;2022-12-07T02:11:10;7.60;99.90
27506;DHT22;14939;43.596;1.320;2022-12-07T02:13:38;7.50;99.90
27506;DHT22;14939;43.596;1.320;2022-12-07T02:19:25;7.60;99.90
27506;DHT22;14939;43.596;1.320;2022-12-07T02:22:08;7.60;99.90
27506;DHT22;14939;43.596;1.320;2022-12-07T02:35:06;7.60;99.90
27506;DHT22;14939;43.596;1.320;2022-12-07T02:40:18;7.60;99.90
27506;DHT22;14939;43.596;1.320;2022-12-07T02:42:53;7.60;99.90
27506;DHT22;14939;43.596;1.320;2022-12-07T02:45:22;7.70;99.90
27506;DHT22;14939;43.596;1.320;2022-12-07T02:47:52;7.70;99.90
27506;DHT22;14939;43.596;1.320;2022-12-07T02:50:21;7.70;99.90
27506;DHT22;14939;43.596;1.320;2022-12-07T02:52:47;7.70;99.90
27506;DHT22;14939;43.596;1.320;2022-12-07T02:55:15;7.60;99.90
27506;DHT22;14939;43.596;1.320;2022-12-07T03:00:20;7.70;99.90
27506;DHT22;14939;43.596;1.320;2022-12-07T03:02:59;7.60;99.90
27506;DHT22;14939;43.596;1.320;2022-12-07T03:14:08;7.70;99.90
27506;DHT22;14939;43.596;1.320;2022-12-07T03:16:21;7.70;99.90
27506;DHT22;14939;43.596;1.320;2022-12-07T03:18:51;7.70;99.90
27506;DHT22;14939;43.596;1.320;2022-12-07T03:21:22;7.70;99.90
27506;DHT22;14939;43.596;1.320;2022-12-07T03:23:52;7.70;99.90
27506;DHT22;14939;43.596;1.320;2022-12-07T03:26:21;7.70;99.90
27506;DHT22;14939;43.596;1.320;2022-12-07T03:28:53;7.60;99.90
27506;DHT22;14939;43.596;1.320;2022-12-07T03:31:28;7.60;99.90
27506;DHT22;14939;43.596;1.320;2022-12-07T03:34:28;7.60;99.90
27506;DHT22;14939;43.596;1.320;2022-12-07T03:37:08;7.60;99.90
27506;DHT22;14939;43.596;1.320;2022-12-07T03:42:06;7.60;99.90
27506;DHT22;14939;43.596;1.320;2022-12-07T03:44:34;7.60;99.90
27506;DHT22;14939;43.596;1.320;2022-12-07T03:50:13;7.60;99.90
27506;DHT22;14939;43.596;1.320;2022-12-07T03:52:55;7.60;99.90
27506;DHT22;14939;43.596;1.320;2022-12-07T03:55:26;7.70;99.90
27506;DHT22;14939;43.596;1.320;2022-12-07T03:57:56;7.70;99.90
27506;DHT22;14939;43.596;1.320;2022-12-07T04:00:23;7.70;99.90
27506;DHT22;14939;43.596;1.320;2022-12-07T04:02:52;7.60;99.90
27506;DHT22;14939;43.596;1.320;2022-12-07T04:05:18;7.60;99.90
27506;DHT22;14939;43.596;1.320;2022-12-07T04:07:44;7.70;99.90
27506;DHT22;14939;43.596;1.320;2022-12-07T04:10:10;7.70;99.90
27506;DHT22;14939;43.596;1.320;2022-12-07T04:12:36;7.60;99.90
27506;DHT22;14939;43.596;1.320;2022-12-07T04:15:03;7.70;99.90
27506;DHT22;14939;43.596;1.320;2022-12-07T04:17:29;7.70;99.90
27506;DHT22;14939;43.596;1.320;2022-12-07T04:19:54;7.70;99.90
27506;DHT22;14939;43.596;1.320;2022-12-07T04:22:23;7.70;99.90
27506;DHT22;14939;43.596;1.320;2022-12-07T04:24:49;7.60;99.90
27506;DHT22;14939;43.596;1.320;2022-12-07T04:27:15;7.70;99.90
27506;DHT22;14939;43.596;1.320;2022-12-07T04:29:40;7.70;99.90
27506;DHT22;14939;43.596;1.320;2022-12-07T04:32:06;7.70;99.90
27506;DHT22;14939;43.596;1.320;2022-12-07T04:34:32;7.70;99.90
27506;DHT22;14939;43.596;1.320;2022-12-07T04:36:57;7.70;99.90
27506;DHT22;14939;43.596;1.320;2022-12-07T04:39:27;7.70;99.90
27506;DHT22;14939;43.596;1.320;2022-12-07T04:41:53;7.60;99.90
27506;DHT22;14939;43.596;1.320;2022-12-07T04:44:20;7.70;99.90
27506;DHT22;14939;43.596;1.320;2022-12-07T04:46:46;7.70;99.90
27506;DHT22;14939;43.596;1.320;2022-12-07T04:49:13;7.70;99.90
27506;DHT22;14939;43.596;1.320;2022-12-07T04:51:40;7.70;99.90
27506;DHT22;14939;43.596;1.320;2022-12-07T04:54:06;7.70;99.90
27506;DHT22;14939;43.596;1.320;2022-12-07T04:56:32;7.70;99.90
27506;DHT22;14939;43.596;1.320;2022-12-07T04:58:58;7.70;99.90
27506;DHT22;14939;43.596;1.320;2022-12-07T05:01:24;7.60;99.90
27506;DHT22;14939;43.596;1.320;2022-12-07T05:03:50;7.60;99.90
27506;DHT22;14939;43.596;1.320;2022-12-07T05:06:16;7.60;99.90
27506;DHT22;14939;43.596;1.320;2022-12-07T05:08:42;7.60;99.90
27506;DHT22;14939;43.596;1.320;2022-12-07T05:11:09;7.70;99.90
27506;DHT22;14939;43.596;1.320;2022-12-07T05:13:36;7.70;99.90
27506;DHT22;14939;43.596;1.320;2022-12-07T05:16:02;7.70;99.90
27506;DHT22;14939;43.596;1.320;2022-12-07T05:18:27;7.70;99.90
27506;DHT22;14939;43.596;1.320;2022-12-07T05:20:53;7.70;99.90
27506;DHT22;14939;43.596;1.320;2022-12-07T05:23:19;7.60;99.90
27506;DHT22;14939;43.596;1.320;2022-12-07T05:25:45;7.60;99.90
27506;DHT22;14939;43.596;1.320;2022-12-07T05:28:11;7.60;99.90
27506;DHT22;14939;43.596;1.320;2022-12-07T05:30:37;7.60;99.90
27506;DHT22;14939;43.596;1.320;2022-12-07T05:33:03;7.70;99.90
27506;DHT22;14939;43.596;1.320;2022-12-07T05:35:29;7.60;99.90
27506;DHT22;14939;43.596;1.320;2022-12-07T05:37:55;7.60;99.90
27506;DHT22;14939;43.596;1.320;2022-12-07T05:40:22;7.60;99.90
27506;DHT22;14939;43.596;1.320;2022-12-07T05:42:48;7.60;99.90
27506;DHT22;14939;43.596;1.320;2022-12-07T05:45:13;7.60;99.90
27506;DHT22;14939;43.596;1.320;2022-12-07T05:47:39;7.60;99.90
27506;DHT22;14939;43.596;1.320;2022-12-07T05:50:05;7.60;99.90
27506;DHT22;14939;43.596;1.320;2022-12-07T05:52:32;7.60;99.90
27506;DHT22;14939;43.596;1.320;2022-12-07T05:54:57;7.50;99.90
27506;DHT22;14939;43.596;1.320;2022-12-07T05:57:23;7.50;99.90
27506;DHT22;14939;43.596;1.320;2022-12-07T05:59:49;7.50;99.90
27506;DHT22;14939;43.596;1.320;2022-12-07T06:02:15;7.50;99.90
27506;DHT22;14939;43.596;1.320;2022-12-07T06:04:45;7.40;99.90
27506;DHT22;14939;43.596;1.320;2022-12-07T06:07:13;7.40;99.90
27506;DHT22;14939;43.596;1.320;2022-12-07T06:09:39;7.40;99.90
27506;DHT22;14939;43.596;1.320;2022-12-07T06:12:06;7.40;99.90
27506;DHT22;14939;43.596;1.320;2022-12-07T06:14:50;7.30;99.90
27506;DHT22;14939;43.596;1.320;2022-12-07T06:17:16;7.30;99.90
27506;DHT22;14939;43.596;1.320;2022-12-07T06:19:42;7.20;99.90
27506;DHT22;14939;43.596;1.320;2022-12-07T06:22:09;7.20;99.90
27506;DHT22;14939;43.596;1.320;2022-12-07T06:24:35;7.20;99.90
27506;DHT22;14939;43.596;1.320;2022-12-07T06:27:01;7.20;99.90
27506;DHT22;14939;43.596;1.320;2022-12-07T06:29:27;7.10;99.90
27506;DHT22;14939;43.596;1.320;2022-12-07T06:31:53;7.10;99.90
27506;DHT22;14939;43.596;1.320;2022-12-07T06:34:23;7.10;99.90
27506;DHT22;14939;43.596;1.320;2022-12-07T06:36:51;7.10;99.90
27506;DHT22;14939;43.596;1.320;2022-12-07T06:39:20;7.10;99.90
27506;DHT22;14939;43.596;1.320;2022-12-07T06:41:49;7.10;99.90
27506;DHT22;14939;43.596;1.320;2022-12-07T06:44:17;7.00;99.90
27506;DHT22;14939;43.596;1.320;2022-12-07T06:46:42;7.00;99.90
27506;DHT22;14939;43.596;1.320;2022-12-07T06:49:08;7.00;99.90
27506;DHT22;14939;43.596;1.320;2022-12-07T06:51:34;7.10;99.90
27506;DHT22;14939;43.596;1.320;2022-12-07T06:54:03;7.10;99.90
27506;DHT22;14939;43.596;1.320;2022-12-07T06:56:29;7.00;99.90
27506;DHT22;14939;43.596;1.320;2022-12-07T06:58:55;7.00;99.90
27506;DHT22;14939;43.596;1.320;2022-12-07T07:01:20;7.00;99.90
27506;DHT22;14939;43.596;1.320;2022-12-07T07:03:47;7.00;99.90
27506;DHT22;14939;43.596;1.320;2022-12-07T07:06:13;7.00;99.90
27506;DHT22;14939;43.596;1.320;2022-12-07T07:08:39;7.00;99.90
27506;DHT22;14939;43.596;1.320;2022-12-07T07:11:06;7.00;99.90
27506;DHT22;14939;43.596;1.320;2022-12-07T07:13:32;7.00;99.90
27506;DHT22;14939;43.596;1.320;2022-12-07T07:15:58;7.00;99.90
27506;DHT22;14939;43.596;1.320;2022-12-07T07:18:24;6.90;99.90
27506;DHT22;14939;43.596;1.320;2022-12-07T07:20:51;6.90;99.90
27506;DHT22;14939;43.596;1.320;2022-12-07T07:23:17;6.90;99.90
27506;DHT22;14939;43.596;1.320;2022-12-07T07:25:44;6.90;99.90
27506;DHT22;14939;43.596;1.320;2022-12-07T07:28:10;7.00;99.90
27506;DHT22;14939;43.596;1.320;2022-12-07T07:30:36;7.00;99.90
27506;DHT22;14939;43.596;1.320;2022-12-07T07:33:03;7.00;99.90
27506;DHT22;14939;43.596;1.320;2022-12-07T07:35:30;7.10;99.90
27506;DHT22;14939;43.596;1.320;2022-12-07T07:37:56;7.10;99.90
27506;DHT22;14939;43.596;1.320;2022-12-07T07:40:23;7.10;99.90
27506;DHT22;14939;43.596;1.320;2022-12-07T07:42:52;7.10;99.90
27506;DHT22;14939;43.596;1.320;2022-12-07T07:45:23;7.20;99.90
27506;DHT22;14939;43.596;1.320;2022-12-07T07:47:50;7.20;99.90
27506;DHT22;14939;43.596;1.320;2022-12-07T07:50:16;7.20;99.90
27506;DHT22;14939;43.596;1.320;2022-12-07T07:52:43;7.20;99.90
27506;DHT22;14939;43.596;1.320;2022-12-07T07:55:09;7.20;99.90
27506;DHT22;14939;43.596;1.320;2022-12-07T07:57:35;7.20;99.90
27506;DHT22;14939;43.596;1.320;2022-12-07T08:00:04;7.20;99.90
27506;DHT22;14939;43.596;1.320;2022-12-07T08:02:29;7.20;99.90
27506;DHT22;14939;43.596;1.320;2022-12-07T08:04:56;7.20;99.90
27506;DHT22;14939;43.596;1.320;2022-12-07T08:07:22;7.20;99.90
27506;DHT22;14939;43.596;1.320;2022-12-07T08:09:48;7.30;99.90
27506;DHT22;14939;43.596;1.320;2022-12-07T08:12:14;7.30;99.90
27506;DHT22;14939;43.596;1.320;2022-12-07T08:14:39;7.40;99.90
27506;DHT22;14939;43.596;1.320;2022-12-07T08:17:05;7.50;99.90
27506;DHT22;14939;43.596;1.320;2022-12-07T08:19:31;7.60;99.90
27506;DHT22;14939;43.596;1.320;2022-12-07T08:21:57;7.60;99.90
27506;DHT22;14939;43.596;1.320;2022-12-07T08:24:23;7.70;99.90
27506;DHT22;14939;43.596;1.320;2022-12-07T08:26:53;7.80;99.90
27506;DHT22;14939;43.596;1.320;2022-12-07T08:29:18;7.90;99.90
27506;DHT22;14939;43.596;1.320;2022-12-07T08:31:45;7.90;99.90
27506;DHT22;14939;43.596;1.320;2022-12-07T08:34:11;7.90;99.90
27506;DHT22;14939;43.596;1.320;2022-12-07T08:36:37;8.00;99.90
27506;DHT22;14939;43.596;1.320;2022-12-07T08:39:03;8.00;99.90
27506;DHT22;14939;43.596;1.320;2022-12-07T08:41:29;8.10;99.90
27506;DHT22;14939;43.596;1.320;2022-12-07T08:43:55;8.10;99.90
27506;DHT22;14939;43.596;1.320;2022-12-07T08:46:47;8.20;99.90
27506;DHT22;14939;43.596;1.320;2022-12-07T08:49:16;8.30;99.90
27506;DHT22;14939;43.596;1.320;2022-12-07T08:51:43;8.40;99.90
27506;DHT22;14939;43.596;1.320;2022-12-07T08:54:11;8.40;99.90
27506;DHT22;14939;43.596;1.320;2022-12-07T08:56:38;8.50;99.90
27506;DHT22;14939;43.596;1.320;2022-12-07T08:59:05;8.50;99.90
27506;DHT22;14939;43.596;1.320;2022-12-07T09:01:31;8.40;99.90
27506;DHT22;14939;43.596;1.320;2022-12-07T09:03:58;8.40;99.90
27506;DHT22;14939;43.596;1.320;2022-12-07T09:06:24;8.40;99.90
27506;DHT22;14939;43.596;1.320;2022-12-07T09:08:52;8.30;99.90
27506;DHT22;14939;43.596;1.320;2022-12-07T09:11:20;8.30;99.90
27506;DHT22;14939;43.596;1.320;2022-12-07T09:13:46;8.30;99.90
27506;DHT22;14939;43.596;1.320;2022-12-07T09:16:11;8.30;99.90
27506;DHT22;14939;43.596;1.320;2022-12-07T09:18:37;8.30;99.90
27506;DHT22;14939;43.596;1.320;2022-12-07T09:21:04;8.20;99.90
27506;DHT22;14939;43.596;1.320;2022-12-07T09:23:30;8.20;99.90
27506;DHT22;14939;43.596;1.320;2022-12-07T09:26:00;8.20;99.90
27506;DHT22;14939;43.596;1.320;2022-12-07T09:28:26;8.20;99.90
27506;DHT22;14939;43.596;1.320;2022-12-07T09:30:52;8.20;99.90
27506;DHT22;14939;43.596;1.320;2022-12-07T09:33:17;8.20;99.90
27506;DHT22;14939;43.596;1.320;2022-12-07T09:35:47;8.20;99.90
27506;DHT22;14939;43.596;1.320;2022-12-07T09:38:14;8.30;99.90
27506;DHT22;14939;43.596;1.320;2022-12-07T09:40:40;8.40;99.90
27506;DHT22;14939;43.596;1.320;2022-12-07T09:43:18;8.40;99.90
27506;DHT22;14939;43.596;1.320;2022-12-07T09:45:47;8.50;99.90
27506;DHT22;14939;43.596;1.320;2022-12-07T09:48:27;8.60;99.90
27506;DHT22;14939;43.596;1.320;2022-12-07T09:50:55;8.70;99.90
27506;DHT22;14939;43.596;1.320;2022-12-07T09:53:27;8.80;99.90
27506;DHT22;14939;43.596;1.320;2022-12-07T09:55:54;8.80;99.90
27506;DHT22;14939;43.596;1.320;2022-12-07T09:58:25;8.80;99.90
27506;DHT22;14939;43.596;1.320;2022-12-07T10:01:19;8.80;99.90
27506;DHT22;14939;43.596;1.320;2022-12-07T10:03:50;9.00;99.90
27506;DHT22;14939;43.596;1.320;2022-12-07T10:06:16;9.00;99.90
27506;DHT22;14939;43.596;1.320;2022-12-07T10:08:42;9.10;99.90
27506;DHT22;14939;43.596;1.320;2022-12-07T10:11:09;9.20;99.90
27506;DHT22;14939;43.596;1.320;2022-12-07T10:13:48;9.30;99.90
27506;DHT22;14939;43.596;1.320;2022-12-07T10:18:49;9.40;99.90
27506;DHT22;14939;43.596;1.320;2022-12-07T10:21:21;9.50;99.90
27506;DHT22;14939;43.596;1.320;2022-12-07T10:26:34;9.60;99.90
27506;DHT22;14939;43.596;1.320;2022-12-07T10:29:19;9.80;99.90
27506;DHT22;14939;43.596;1.320;2022-12-07T10:31:48;9.80;99.90
27506;DHT22;14939;43.596;1.320;2022-12-07T10:36:53;10.00;99.90
27506;DHT22;14939;43.596;1.320;2022-12-07T10:39:22;10.00;99.90
27506;DHT22;14939;43.596;1.320;2022-12-07T10:41:58;10.00;99.90
27506;DHT22;14939;43.596;1.320;2022-12-07T10:44:33;10.20;99.90
27506;DHT22;14939;43.596;1.320;2022-12-07T10:50:01;10.20;99.90
27506;DHT22;14939;43.596;1.320;2022-12-07T10:55:22;10.30;99.90
27506;DHT22;14939;43.596;1.320;2022-12-07T11:00:48;10.50;98.20
27506;DHT22;14939;43.596;1.320;2022-12-07T11:04:03;10.60;98.80
27506;DHT22;14939;43.596;1.320;2022-12-07T11:09:35;10.50;96.70
27506;DHT22;14939;43.596;1.320;2022-12-07T11:12:09;10.40;97.30
27506;DHT22;14939;43.596;1.320;2022-12-07T11:14:44;10.40;97.90
27506;DHT22;14939;43.596;1.320;2022-12-07T11:17:27;10.40;98.20
27506;DHT22;14939;43.596;1.320;2022-12-07T11:22:56;10.40;98.50
27506;DHT22;14939;43.596;1.320;2022-12-07T11:25:34;10.40;99.80
27506;DHT22;14939;43.596;1.320;2022-12-07T11:28:23;10.40;99.00
27506;DHT22;14939;43.596;1.320;2022-12-07T11:33:46;10.60;99.30
27506;DHT22;14939;43.596;1.320;2022-12-07T11:38:58;10.80;98.90
27506;DHT22;14939;43.596;1.320;2022-12-07T11:41:35;11.00;98.70
27506;DHT22;14939;43.596;1.320;2022-12-07T11:49:40;11.00;99.60
27506;DHT22;14939;43.596;1.320;2022-12-07T11:52:30;11.00;99.40
27506;DHT22;14939;43.596;1.320;2022-12-07T11:54:59;11.00;99.90
27506;DHT22;14939;43.596;1.320;2022-12-07T11:57:37;11.00;99.90
27506;DHT22;14939;43.596;1.320;2022-12-07T12:00:08;11.00;99.00
27506;DHT22;14939;43.596;1.320;2022-12-07T12:02:46;11.10;98.90
27506;DHT22;14939;43.596;1.320;2022-12-07T12:05:22;11.10;98.50
27506;DHT22;14939;43.596;1.320;2022-12-07T12:07:58;11.10;97.70
27506;DHT22;14939;43.596;1.320;2022-12-07T12:21:08;11.50;97.80
27506;DHT22;14939;43.596;1.320;2022-12-07T12:23:42;11.50;98.30
27506;DHT22;14939;43.596;1.320;2022-12-07T12:26:21;11.60;98.70
27506;DHT22;14939;43.596;1.320;2022-12-07T12:29:05;11.60;99.10
27506;DHT22;14939;43.596;1.320;2022-12-07T12:34:03;11.70;98.40
27506;DHT22;14939;43.596;1.320;2022-12-07T12:39:17;11.80;97.70
27506;DHT22;14939;43.596;1.320;2022-12-07T12:47:03;11.90;96.20
27506;DHT22;14939;43.596;1.320;2022-12-07T12:49:40;11.90;96.70
27506;DHT22;14939;43.596;1.320;2022-12-07T12:57:33;12.10;97.20
27506;DHT22;14939;43.596;1.320;2022-12-07T13:00:01;12.10;96.60
27506;DHT22;14939;43.596;1.320;2022-12-07T13:02:34;12.10;97.20
27506;DHT22;14939;43.596;1.320;2022-12-07T13:10:32;12.10;97.00
27506;DHT22;14939;43.596;1.320;2022-12-07T13:15:47;12.00;97.10
27506;DHT22;14939;43.596;1.320;2022-12-07T13:23:39;12.00;97.10
27506;DHT22;14939;43.596;1.320;2022-12-07T13:28:49;12.10;97.40
27506;DHT22;14939;43.596;1.320;2022-12-07T13:31:44;12.10;97.20
27506;DHT22;14939;43.596;1.320;2022-12-07T13:36:57;12.20;97.30
27506;DHT22;14939;43.596;1.320;2022-12-07T13:39:25;12.20;97.60
27506;DHT22;14939;43.596;1.320;2022-12-07T13:41:53;12.20;97.30
27506;DHT22;14939;43.596;1.320;2022-12-07T13:44:24;12.20;97.60
27506;DHT22;14939;43.596;1.320;2022-12-07T13:49:36;12.30;97.20
27506;DHT22;14939;43.596;1.320;2022-12-07T13:52:20;12.30;96.80
27506;DHT22;14939;43.596;1.320;2022-12-07T13:54:47;12.40;96.60
27506;DHT22;14939;43.596;1.320;2022-12-07T13:57:15;12.40;96.30
27506;DHT22;14939;43.596;1.320;2022-12-07T13:59:41;12.40;96.50
27506;DHT22;14939;43.596;1.320;2022-12-07T14:02:25;12.30;96.20
27506;DHT22;14939;43.596;1.320;2022-12-07T14:05:05;12.20;96.30
27506;DHT22;14939;43.596;1.320;2022-12-07T14:07:33;12.20;96.40
27506;DHT22;14939;43.596;1.320;2022-12-07T14:10:06;12.10;95.60
27506;DHT22;14939;43.596;1.320;2022-12-07T14:12:36;12.10;96.40
27506;DHT22;14939;43.596;1.320;2022-12-07T14:15:03;12.10;96.00
27506;DHT22;14939;43.596;1.320;2022-12-07T14:17:29;12.00;97.10
27506;DHT22;14939;43.596;1.320;2022-12-07T14:19:59;12.10;96.80
27506;DHT22;14939;43.596;1.320;2022-12-07T14:22:30;12.10;96.30
27506;DHT22;14939;43.596;1.320;2022-12-07T14:25:01;12.00;95.80
27506;DHT22;14939;43.596;1.320;2022-12-07T14:27:37;12.00;96.30
27506;DHT22;14939;43.596;1.320;2022-12-07T14:30:04;12.00;96.10
27506;DHT22;14939;43.596;1.320;2022-12-07T14:32:30;12.00;96.50
27506;DHT22;14939;43.596;1.320;2022-12-07T14:35:01;12.00;96.50
27506;DHT22;14939;43.596;1.320;2022-12-07T14:37:28;12.00;96.40
27506;DHT22;14939;43.596;1.320;2022-12-07T14:39:54;12.10;97.00
27506;DHT22;14939;43.596;1.320;2022-12-07T14:42:20;12.10;96.70
27506;DHT22;14939;43.596;1.320;2022-12-07T14:44:46;12.00;96.90
27506;DHT22;14939;43.596;1.320;2022-12-07T14:47:12;12.10;96.80
27506;DHT22;14939;43.596;1.320;2022-12-07T14:49:38;12.10;96.80
27506;DHT22;14939;43.596;1.320;2022-12-07T14:52:05;12.10;96.90
27506;DHT22;14939;43.596;1.320;2022-12-07T14:54:32;12.10;97.10
27506;DHT22;14939;43.596;1.320;2022-12-07T14:56:58;12.10;97.50
27506;DHT22;14939;43.596;1.320;2022-12-07T14:59:24;12.10;97.40
27506;DHT22;14939;43.596;1.320;2022-12-07T15:01:49;12.10;97.50
27506;DHT22;14939;43.596;1.320;2022-12-07T15:04:15;12.10;97.50
27506;DHT22;14939;43.596;1.320;2022-12-07T15:06:41;12.10;97.30
27506;DHT22;14939;43.596;1.320;2022-12-07T15:09:11;12.10;97.50
27506;DHT22;14939;43.596;1.320;2022-12-07T15:11:36;12.10;97.20
27506;DHT22;14939;43.596;1.320;2022-12-07T15:14:02;12.10;97.30
27506;DHT22;14939;43.596;1.320;2022-12-07T15:16:35;12.10;97.40
27506;DHT22;14939;43.596;1.320;2022-12-07T15:19:01;12.10;97.60
27506;DHT22;14939;43.596;1.320;2022-12-07T15:21:27;12.10;97.90
27506;DHT22;14939;43.596;1.320;2022-12-07T15:23:53;12.00;97.50
27506;DHT22;14939;43.596;1.320;2022-12-07T15:26:19;12.00;97.30
27506;DHT22;14939;43.596;1.320;2022-12-07T15:28:45;11.90;97.30
27506;DHT22;14939;43.596;1.320;2022-12-07T15:31:12;11.80;97.40
27506;DHT22;14939;43.596;1.320;2022-12-07T15:33:38;11.70;97.50
27506;DHT22;14939;43.596;1.320;2022-12-07T15:36:04;11.50;97.80
27506;DHT22;14939;43.596;1.320;2022-12-07T15:38:30;11.40;98.20
27506;DHT22;14939;43.596;1.320;2022-12-07T15:40:56;11.30;98.60
27506;DHT22;14939;43.596;1.320;2022-12-07T15:43:22;11.30;98.80
27506;DHT22;14939;43.596;1.320;2022-12-07T15:46:07;11.20;99.00
27506;DHT22;14939;43.596;1.320;2022-12-07T15:48:32;11.10;99.00
27506;DHT22;14939;43.596;1.320;2022-12-07T15:51:08;11.10;99.00
27506;DHT22;14939;43.596;1.320;2022-12-07T15:53:35;11.10;99.30
27506;DHT22;14939;43.596;1.320;2022-12-07T15:56:05;11.10;99.10
27506;DHT22;14939;43.596;1.320;2022-12-07T15:58:31;11.00;99.40
27506;DHT22;14939;43.596;1.320;2022-12-07T16:00:57;11.00;99.60
27506;DHT22;14939;43.596;1.320;2022-12-07T16:03:23;10.90;99.90
27506;DHT22;14939;43.596;1.320;2022-12-07T16:05:50;10.70;99.90
27506;DHT22;14939;43.596;1.320;2022-12-07T16:08:16;10.60;99.90
27506;DHT22;14939;43.596;1.320;2022-12-07T16:10:42;10.50;99.90
27506;DHT22;14939;43.596;1.320;2022-12-07T16:13:09;10.40;99.90
27506;DHT22;14939;43.596;1.320;2022-12-07T16:15:42;10.30;99.90
27506;DHT22;14939;43.596;1.320;2022-12-07T16:18:08;10.20;99.90
27506;DHT22;14939;43.596;1.320;2022-12-07T16:20:34;10.10;99.90
27506;DHT22;14939;43.596;1.320;2022-12-07T16:22:59;10.00;99.90
27506;DHT22;14939;43.596;1.320;2022-12-07T16:25:25;9.90;99.90
27506;DHT22;14939;43.596;1.320;2022-12-07T16:27:52;9.80;99.90
27506;DHT22;14939;43.596;1.320;2022-12-07T16:30:17;9.70;99.90
27506;DHT22;14939;43.596;1.320;2022-12-07T16:32:43;9.60;99.90
27506;DHT22;14939;43.596;1.320;2022-12-07T16:35:10;9.60;99.90
27506;DHT22;14939;43.596;1.320;2022-12-07T16:37:35;9.50;99.90
27506;DHT22;14939;43.596;1.320;2022-12-07T16:40:04;9.40;99.90
27506;DHT22;14939;43.596;1.320;2022-12-07T16:42:34;9.30;99.90
27506;DHT22;14939;43.596;1.320;2022-12-07T16:45:00;9.10;99.90
27506;DHT22;14939;43.596;1.320;2022-12-07T16:47:26;8.90;99.90
27506;DHT22;14939;43.596;1.320;2022-12-07T16:49:52;8.80;99.90
27506;DHT22;14939;43.596;1.320;2022-12-07T16:52:21;8.70;99.90
27506;DHT22;14939;43.596;1.320;2022-12-07T16:54:48;8.60;99.90
27506;DHT22;14939;43.596;1.320;2022-12-07T16:57:14;8.50;99.90
27506;DHT22;14939;43.596;1.320;2022-12-07T16:59:40;8.50;99.90
27506;DHT22;14939;43.596;1.320;2022-12-07T17:02:08;8.40;99.90
27506;DHT22;14939;43.596;1.320;2022-12-07T17:04:33;8.40;99.90
27506;DHT22;14939;43.596;1.320;2022-12-07T17:07:00;8.30;99.90
27506;DHT22;14939;43.596;1.320;2022-12-07T17:09:25;8.30;99.90
27506;DHT22;14939;43.596;1.320;2022-12-07T17:11:51;8.20;99.90
27506;DHT22;14939;43.596;1.320;2022-12-07T17:14:17;8.20;99.90
27506;DHT22;14939;43.596;1.320;2022-12-07T17:17:01;8.00;99.90
27506;DHT22;14939;43.596;1.320;2022-12-07T17:19:27;7.90;99.90
27506;DHT22;14939;43.596;1.320;2022-12-07T17:21:53;7.80;99.90
27506;DHT22;14939;43.596;1.320;2022-12-07T17:24:19;7.70;99.90
27506;DHT22;14939;43.596;1.320;2022-12-07T17:26:45;7.70;99.90
27506;DHT22;14939;43.596;1.320;2022-12-07T17:29:13;7.70;99.90
27506;DHT22;14939;43.596;1.320;2022-12-07T17:31:39;7.70;99.90
27506;DHT22;14939;43.596;1.320;2022-12-07T17:34:11;7.70;99.90
27506;DHT22;14939;43.596;1.320;2022-12-07T17:36:38;7.70;99.90
27506;DHT22;14939;43.596;1.320;2022-12-07T17:39:11;7.60;99.90
27506;DHT22;14939;43.596;1.320;2022-12-07T17:41:38;7.50;99.90
27506;DHT22;14939;43.596;1.320;2022-12-07T17:44:23;7.50;99.90
27506;DHT22;14939;43.596;1.320;2022-12-07T17:46:51;7.40;99.90
27506;DHT22;14939;43.596;1.320;2022-12-07T17:49:20;7.30;99.90
27506;DHT22;14939;43.596;1.320;2022-12-07T17:51:46;7.50;99.90